sensor_id;sensor_type;location;lat;lon;timestamp;P1;durP1;ratioP1;P2;durP2;ratioP2
36185;SDS011;22228;53.222;7.446;2023-07-28T00:01:19;25.30;;;16.20;;
36185;SDS011;22228;53.222;7.446;2023-07-28T00:03:40;25.90;;;16.80;;
36185;SDS011;22228;53.222;7.446;2023-07-28T00:06:01;21.60;;;17.30;;
36185;SDS011;22228;53.222;7.446;2023-07-28T00:08:21;25.87;;;17.03;;
36185;SDS011;22228;53.222;7.446;2023-07-28T00:10:43;23.80;;;16.73;;
36185;SDS011;22228;53.222;7.446;2023-07-28T00:13:03;28.90;;;17.77;;
36185;SDS011;22228;53.222;7.446;2023-07-28T03:01:03;30.17;;;18.00;;
36185;SDS011;22228;53.222;7.446;2023-07-28T03:03:29;31.00;;;18.90;;
36185;SDS011;22228;53.222;7.446;2023-07-28T03:05:51;28.47;;;19.87;;
36185;SDS011;22228;53.222;7.446;2023-07-28T03:08:17;26.13;;;18.83;;
36185;SDS011;22228;53.222;7.446;2023-07-28T03:10:38;34.20;;;20.50;;
36185;SDS011;22228;53.222;7.446;2023-07-28T03:12:58;28.67;;;19.27;;
36185;SDS011;22228;53.222;7.446;2023-07-28T03:15:19;33.47;;;19.13;;
36185;SDS011;22228;53.222;7.446;2023-07-28T03:17:42;35.00;;;21.20;;
36185;SDS011;22228;53.222;7.446;2023-07-28T03:20:03;30.40;;;19.20;;
36185;SDS011;22228;53.222;7.446;2023-07-28T03:22:25;28.73;;;20.17;;
36185;SDS011;22228;53.222;7.446;2023-07-28T03:24:46;32.20;;;20.83;;
36185;SDS011;22228;53.222;7.446;2023-07-28T03:27:06;30.27;;;20.27;;
36185;SDS011;22228;53.222;7.446;2023-07-28T03:29:27;35.40;;;21.53;;
36185;SDS011;22228;53.222;7.446;2023-07-28T03:31:48;34.27;;;20.37;;
36185;SDS011;22228;53.222;7.446;2023-07-28T03:34:11;33.17;;;21.27;;
36185;SDS011;22228;53.222;7.446;2023-07-28T03:36:32;34.23;;;21.17;;
36185;SDS011;22228;53.222;7.446;2023-07-28T03:38:53;26.03;;;19.77;;
36185;SDS011;22228;53.222;7.446;2023-07-28T03:41:14;35.70;;;22.47;;
36185;SDS011;22228;53.222;7.446;2023-07-28T03:43:35;30.87;;;20.87;;
36185;SDS011;22228;53.222;7.446;2023-07-28T03:45:56;32.63;;;20.87;;
36185;SDS011;22228;53.222;7.446;2023-07-28T03:48:17;28.70;;;19.87;;
36185;SDS011;22228;53.222;7.446;2023-07-28T03:50:39;31.97;;;21.07;;
36185;SDS011;22228;53.222;7.446;2023-07-28T03:52:59;26.20;;;18.63;;
36185;SDS011;22228;53.222;7.446;2023-07-28T03:55:20;33.63;;;20.57;;
36185;SDS011;22228;53.222;7.446;2023-07-28T03:57:40;25.33;;;18.73;;
36185;SDS011;22228;53.222;7.446;2023-07-28T04:00:01;28.87;;;19.20;;
36185;SDS011;22228;53.222;7.446;2023-07-28T04:02:31;26.77;;;17.67;;
36185;SDS011;22228;53.222;7.446;2023-07-28T04:04:53;28.17;;;19.80;;
36185;SDS011;22228;53.222;7.446;2023-07-28T04:07:16;23.77;;;18.90;;
36185;SDS011;22228;53.222;7.446;2023-07-28T04:09:36;28.40;;;19.67;;
36185;SDS011;22228;53.222;7.446;2023-07-28T04:11:57;24.53;;;19.20;;
36185;SDS011;22228;53.222;7.446;2023-07-28T04:14:18;25.03;;;19.53;;
36185;SDS011;22228;53.222;7.446;2023-07-28T04:16:38;28.07;;;20.20;;
36185;SDS011;22228;53.222;7.446;2023-07-28T04:18:59;30.73;;;20.90;;
36185;SDS011;22228;53.222;7.446;2023-07-28T04:21:21;31.43;;;22.43;;
36185;SDS011;22228;53.222;7.446;2023-07-28T04:23:43;29.47;;;22.10;;
36185;SDS011;22228;53.222;7.446;2023-07-28T04:26:10;28.50;;;21.83;;
36185;SDS011;22228;53.222;7.446;2023-07-28T04:28:32;33.47;;;22.90;;
36185;SDS011;22228;53.222;7.446;2023-07-28T04:30:55;34.57;;;24.83;;
36185;SDS011;22228;53.222;7.446;2023-07-28T04:33:41;31.53;;;23.67;;
36185;SDS011;22228;53.222;7.446;2023-07-28T04:36:03;32.43;;;23.23;;
36185;SDS011;22228;53.222;7.446;2023-07-28T04:38:26;36.63;;;23.90;;
36185;SDS011;22228;53.222;7.446;2023-07-28T04:40:51;29.03;;;22.90;;
36185;SDS011;22228;53.222;7.446;2023-07-28T04:43:17;38.37;;;25.17;;
36185;SDS011;22228;53.222;7.446;2023-07-28T04:45:44;32.80;;;23.33;;
36185;SDS011;22228;53.222;7.446;2023-07-28T04:48:10;39.83;;;25.13;;
36185;SDS011;22228;53.222;7.446;2023-07-28T04:50:30;36.37;;;24.37;;
36185;SDS011;22228;53.222;7.446;2023-07-28T04:53:11;40.07;;;25.17;;
36185;SDS011;22228;53.222;7.446;2023-07-28T04:55:46;39.07;;;24.23;;
36185;SDS011;22228;53.222;7.446;2023-07-28T04:58:08;36.87;;;24.53;;
36185;SDS011;22228;53.222;7.446;2023-07-28T05:00:39;39.10;;;23.33;;
36185;SDS011;22228;53.222;7.446;2023-07-28T05:03:00;34.10;;;24.77;;
36185;SDS011;22228;53.222;7.446;2023-07-28T05:05:25;39.07;;;24.10;;
36185;SDS011;22228;53.222;7.446;2023-07-28T05:07:45;35.13;;;21.43;;
36185;SDS011;22228;53.222;7.446;2023-07-28T05:10:08;35.47;;;22.57;;
36185;SDS011;22228;53.222;7.446;2023-07-28T05:12:29;37.80;;;23.77;;
36185;SDS011;22228;53.222;7.446;2023-07-28T05:14:52;34.27;;;22.33;;
36185;SDS011;22228;53.222;7.446;2023-07-28T05:17:14;36.87;;;21.90;;
36185;SDS011;22228;53.222;7.446;2023-07-28T05:19:45;37.27;;;22.20;;
36185;SDS011;22228;53.222;7.446;2023-07-28T05:22:24;36.10;;;21.87;;
36185;SDS011;22228;53.222;7.446;2023-07-28T05:24:48;31.03;;;20.60;;
36185;SDS011;22228;53.222;7.446;2023-07-28T05:27:08;29.87;;;21.07;;
36185;SDS011;22228;53.222;7.446;2023-07-28T05:29:29;30.80;;;20.43;;
36185;SDS011;22228;53.222;7.446;2023-07-28T05:31:57;33.37;;;20.47;;
36185;SDS011;22228;53.222;7.446;2023-07-28T05:34:25;29.90;;;21.33;;
36185;SDS011;22228;53.222;7.446;2023-07-28T05:36:46;31.50;;;20.57;;
36185;SDS011;22228;53.222;7.446;2023-07-28T05:39:06;31.80;;;19.80;;
36185;SDS011;22228;53.222;7.446;2023-07-28T05:41:35;26.53;;;18.60;;
36185;SDS011;22228;53.222;7.446;2023-07-28T05:43:56;28.33;;;18.97;;
36185;SDS011;22228;53.222;7.446;2023-07-28T05:46:17;31.37;;;19.47;;
36185;SDS011;22228;53.222;7.446;2023-07-28T05:48:39;27.20;;;19.73;;
36185;SDS011;22228;53.222;7.446;2023-07-28T05:50:59;33.40;;;19.23;;
36185;SDS011;22228;53.222;7.446;2023-07-28T05:53:20;24.40;;;18.73;;
36185;SDS011;22228;53.222;7.446;2023-07-28T05:55:43;27.83;;;19.17;;
36185;SDS011;22228;53.222;7.446;2023-07-28T05:58:04;24.37;;;18.07;;
36185;SDS011;22228;53.222;7.446;2023-07-28T06:00:26;31.93;;;19.47;;
36185;SDS011;22228;53.222;7.446;2023-07-28T06:02:48;29.83;;;19.17;;
36185;SDS011;22228;53.222;7.446;2023-07-28T06:05:31;25.23;;;17.83;;
36185;SDS011;22228;53.222;7.446;2023-07-28T06:07:51;28.27;;;19.07;;
36185;SDS011;22228;53.222;7.446;2023-07-28T06:10:12;22.57;;;18.00;;
36185;SDS011;22228;53.222;7.446;2023-07-28T06:12:33;25.57;;;18.50;;
36185;SDS011;22228;53.222;7.446;2023-07-28T06:14:53;22.37;;;17.30;;
36185;SDS011;22228;53.222;7.446;2023-07-28T06:17:15;24.40;;;17.37;;
36185;SDS011;22228;53.222;7.446;2023-07-28T06:19:37;23.47;;;16.07;;
36185;SDS011;22228;53.222;7.446;2023-07-28T06:21:59;25.90;;;17.53;;
36185;SDS011;22228;53.222;7.446;2023-07-28T06:24:23;20.00;;;15.80;;
36185;SDS011;22228;53.222;7.446;2023-07-28T06:26:44;22.67;;;15.80;;
36185;SDS011;22228;53.222;7.446;2023-07-28T06:29:04;24.50;;;16.00;;
36185;SDS011;22228;53.222;7.446;2023-07-28T06:31:25;22.33;;;14.87;;
36185;SDS011;22228;53.222;7.446;2023-07-28T06:33:46;22.33;;;14.67;;
36185;SDS011;22228;53.222;7.446;2023-07-28T06:36:07;21.43;;;13.90;;
36185;SDS011;22228;53.222;7.446;2023-07-28T06:38:29;18.33;;;13.70;;
36185;SDS011;22228;53.222;7.446;2023-07-28T06:40:49;16.87;;;13.40;;
36185;SDS011;22228;53.222;7.446;2023-07-28T06:43:11;16.93;;;13.60;;
36185;SDS011;22228;53.222;7.446;2023-07-28T06:45:32;17.33;;;12.27;;
36185;SDS011;22228;53.222;7.446;2023-07-28T06:47:54;14.47;;;11.87;;
36185;SDS011;22228;53.222;7.446;2023-07-28T06:50:15;19.23;;;12.37;;
36185;SDS011;22228;53.222;7.446;2023-07-28T06:52:36;16.73;;;10.57;;
36185;SDS011;22228;53.222;7.446;2023-07-28T06:54:58;13.60;;;9.90;;
36185;SDS011;22228;53.222;7.446;2023-07-28T06:57:18;14.17;;;9.80;;
36185;SDS011;22228;53.222;7.446;2023-07-28T06:59:40;18.57;;;9.40;;
36185;SDS011;22228;53.222;7.446;2023-07-28T07:02:01;10.33;;;8.83;;
36185;SDS011;22228;53.222;7.446;2023-07-28T07:04:21;12.57;;;9.67;;
36185;SDS011;22228;53.222;7.446;2023-07-28T07:06:42;17.13;;;10.50;;
36185;SDS011;22228;53.222;7.446;2023-07-28T07:09:02;13.20;;;9.60;;
36185;SDS011;22228;53.222;7.446;2023-07-28T07:11:25;17.53;;;9.67;;
36185;SDS011;22228;53.222;7.446;2023-07-28T07:13:46;9.97;;;8.97;;
36185;SDS011;22228;53.222;7.446;2023-07-28T07:16:12;18.13;;;8.97;;
36185;SDS011;22228;53.222;7.446;2023-07-28T07:18:35;9.07;;;7.83;;
36185;SDS011;22228;53.222;7.446;2023-07-28T07:20:56;9.57;;;6.97;;
36185;SDS011;22228;53.222;7.446;2023-07-28T07:23:16;9.20;;;6.97;;
36185;SDS011;22228;53.222;7.446;2023-07-28T07:25:40;7.23;;;6.63;;
36185;SDS011;22228;53.222;7.446;2023-07-28T07:28:02;7.77;;;6.23;;
36185;SDS011;22228;53.222;7.446;2023-07-28T07:30:23;8.03;;;6.57;;
36185;SDS011;22228;53.222;7.446;2023-07-28T07:32:44;12.23;;;11.00;;
36185;SDS011;22228;53.222;7.446;2023-07-28T07:35:05;7.40;;;6.70;;
36185;SDS011;22228;53.222;7.446;2023-07-28T07:37:27;7.27;;;6.43;;
36185;SDS011;22228;53.222;7.446;2023-07-28T07:39:50;8.73;;;6.60;;
36185;SDS011;22228;53.222;7.446;2023-07-28T07:42:11;11.37;;;6.93;;
36185;SDS011;22228;53.222;7.446;2023-07-28T07:44:35;8.83;;;6.47;;
36185;SDS011;22228;53.222;7.446;2023-07-28T07:46:55;9.07;;;6.67;;
36185;SDS011;22228;53.222;7.446;2023-07-28T07:49:18;9.33;;;5.87;;
36185;SDS011;22228;53.222;7.446;2023-07-28T07:51:39;6.07;;;5.30;;
36185;SDS011;22228;53.222;7.446;2023-07-28T07:53:59;7.93;;;5.13;;
36185;SDS011;22228;53.222;7.446;2023-07-28T07:56:21;4.30;;;3.90;;
36185;SDS011;22228;53.222;7.446;2023-07-28T07:58:41;6.40;;;3.90;;
36185;SDS011;22228;53.222;7.446;2023-07-28T08:01:03;11.37;;;4.03;;
36185;SDS011;22228;53.222;7.446;2023-07-28T08:03:24;8.07;;;3.60;;
36185;SDS011;22228;53.222;7.446;2023-07-28T08:05:45;4.10;;;3.50;;
36185;SDS011;22228;53.222;7.446;2023-07-28T08:08:06;5.10;;;3.50;;
36185;SDS011;22228;53.222;7.446;2023-07-28T08:10:28;4.53;;;3.60;;
36185;SDS011;22228;53.222;7.446;2023-07-28T08:12:49;4.93;;;3.50;;
36185;SDS011;22228;53.222;7.446;2023-07-28T08:15:09;3.73;;;3.43;;
36185;SDS011;22228;53.222;7.446;2023-07-28T08:17:31;4.53;;;3.37;;
36185;SDS011;22228;53.222;7.446;2023-07-28T08:19:51;5.17;;;2.93;;
36185;SDS011;22228;53.222;7.446;2023-07-28T08:22:13;5.03;;;2.70;;
36185;SDS011;22228;53.222;7.446;2023-07-28T08:24:34;5.43;;;3.10;;
36185;SDS011;22228;53.222;7.446;2023-07-28T08:26:54;3.20;;;2.73;;
36185;SDS011;22228;53.222;7.446;2023-07-28T08:29:15;4.23;;;3.00;;
36185;SDS011;22228;53.222;7.446;2023-07-28T08:31:35;5.43;;;3.87;;
36185;SDS011;22228;53.222;7.446;2023-07-28T08:33:58;5.63;;;5.07;;
36185;SDS011;22228;53.222;7.446;2023-07-28T08:36:18;7.07;;;6.30;;
36185;SDS011;22228;53.222;7.446;2023-07-28T08:38:39;7.13;;;6.60;;
36185;SDS011;22228;53.222;7.446;2023-07-28T08:41:00;7.63;;;6.80;;
36185;SDS011;22228;53.222;7.446;2023-07-28T08:43:20;8.00;;;7.13;;
36185;SDS011;22228;53.222;7.446;2023-07-28T08:45:41;7.00;;;6.43;;
36185;SDS011;22228;53.222;7.446;2023-07-28T08:48:01;8.80;;;8.00;;
36185;SDS011;22228;53.222;7.446;2023-07-28T08:50:24;7.80;;;7.27;;
36185;SDS011;22228;53.222;7.446;2023-07-28T08:52:45;8.53;;;7.90;;
36185;SDS011;22228;53.222;7.446;2023-07-28T08:55:06;8.27;;;7.57;;
36185;SDS011;22228;53.222;7.446;2023-07-28T08:57:27;6.87;;;6.37;;
36185;SDS011;22228;53.222;7.446;2023-07-28T08:59:48;6.47;;;5.97;;
36185;SDS011;22228;53.222;7.446;2023-07-28T09:02:09;5.83;;;5.43;;
36185;SDS011;22228;53.222;7.446;2023-07-28T09:04:33;5.13;;;4.73;;
36185;SDS011;22228;53.222;7.446;2023-07-28T09:06:55;5.30;;;5.00;;
36185;SDS011;22228;53.222;7.446;2023-07-28T09:09:18;4.43;;;4.03;;
36185;SDS011;22228;53.222;7.446;2023-07-28T09:11:44;4.23;;;3.93;;
36185;SDS011;22228;53.222;7.446;2023-07-28T09:14:05;4.67;;;4.37;;
36185;SDS011;22228;53.222;7.446;2023-07-28T09:16:31;4.53;;;4.13;;
36185;SDS011;22228;53.222;7.446;2023-07-28T09:18:54;5.00;;;4.57;;
36185;SDS011;22228;53.222;7.446;2023-07-28T09:21:24;4.80;;;4.40;;
36185;SDS011;22228;53.222;7.446;2023-07-28T09:23:46;4.17;;;3.80;;
36185;SDS011;22228;53.222;7.446;2023-07-28T09:26:07;3.50;;;3.30;;
36185;SDS011;22228;53.222;7.446;2023-07-28T09:28:36;3.17;;;2.90;;
36185;SDS011;22228;53.222;7.446;2023-07-28T09:30:57;2.90;;;2.70;;
36185;SDS011;22228;53.222;7.446;2023-07-28T09:33:30;3.20;;;2.90;;
36185;SDS011;22228;53.222;7.446;2023-07-28T09:35:52;3.53;;;3.33;;
36185;SDS011;22228;53.222;7.446;2023-07-28T09:38:12;3.70;;;3.13;;
36185;SDS011;22228;53.222;7.446;2023-07-28T09:40:36;3.90;;;3.20;;
36185;SDS011;22228;53.222;7.446;2023-07-28T09:42:56;2.57;;;2.37;;
36185;SDS011;22228;53.222;7.446;2023-07-28T09:45:17;1.90;;;1.80;;
36185;SDS011;22228;53.222;7.446;2023-07-28T09:47:38;1.87;;;1.70;;
36185;SDS011;22228;53.222;7.446;2023-07-28T09:50:00;2.50;;;1.73;;
36185;SDS011;22228;53.222;7.446;2023-07-28T09:52:23;2.40;;;1.50;;
36185;SDS011;22228;53.222;7.446;2023-07-28T09:54:47;1.47;;;1.37;;
36185;SDS011;22228;53.222;7.446;2023-07-28T09:57:14;1.40;;;1.30;;
36185;SDS011;22228;53.222;7.446;2023-07-28T09:59:39;1.20;;;1.20;;
36185;SDS011;22228;53.222;7.446;2023-07-28T10:02:01;4.53;;;1.40;;
36185;SDS011;22228;53.222;7.446;2023-07-28T10:04:22;1.53;;;1.43;;
36185;SDS011;22228;53.222;7.446;2023-07-28T10:06:42;2.40;;;1.50;;
36185;SDS011;22228;53.222;7.446;2023-07-28T10:09:03;2.03;;;1.50;;
36185;SDS011;22228;53.222;7.446;2023-07-28T10:11:25;2.00;;;1.60;;
36185;SDS011;22228;53.222;7.446;2023-07-28T10:13:50;2.70;;;1.57;;
36185;SDS011;22228;53.222;7.446;2023-07-28T10:16:16;2.13;;;2.03;;
36185;SDS011;22228;53.222;7.446;2023-07-28T10:18:37;1.83;;;1.60;;
36185;SDS011;22228;53.222;7.446;2023-07-28T10:21:03;4.97;;;1.83;;
36185;SDS011;22228;53.222;7.446;2023-07-28T10:23:24;2.17;;;1.97;;
36185;SDS011;22228;53.222;7.446;2023-07-28T10:25:46;2.17;;;2.00;;
36185;SDS011;22228;53.222;7.446;2023-07-28T10:28:06;3.33;;;3.10;;
36185;SDS011;22228;53.222;7.446;2023-07-28T10:30:52;3.53;;;2.97;;
36185;SDS011;22228;53.222;7.446;2023-07-28T10:33:25;2.30;;;2.20;;
36185;SDS011;22228;53.222;7.446;2023-07-28T10:35:47;2.57;;;2.20;;
36185;SDS011;22228;53.222;7.446;2023-07-28T10:40:52;1.10;;;1.10;;
36185;SDS011;22228;53.222;7.446;2023-07-28T10:43:13;1.50;;;1.40;;
36185;SDS011;22228;53.222;7.446;2023-07-28T10:45:33;1.77;;;1.20;;
36185;SDS011;22228;53.222;7.446;2023-07-28T10:47:56;1.10;;;1.00;;
36185;SDS011;22228;53.222;7.446;2023-07-28T10:50:19;1.97;;;1.77;;
36185;SDS011;22228;53.222;7.446;2023-07-28T10:52:39;2.63;;;2.37;;
36185;SDS011;22228;53.222;7.446;2023-07-28T10:55:00;2.07;;;1.97;;
36185;SDS011;22228;53.222;7.446;2023-07-28T10:57:21;2.00;;;1.90;;
36185;SDS011;22228;53.222;7.446;2023-07-28T10:59:41;2.93;;;1.80;;
36185;SDS011;22228;53.222;7.446;2023-07-28T11:02:02;1.80;;;1.70;;
36185;SDS011;22228;53.222;7.446;2023-07-28T11:04:24;3.83;;;2.33;;
36185;SDS011;22228;53.222;7.446;2023-07-28T11:06:45;2.67;;;2.47;;
36185;SDS011;22228;53.222;7.446;2023-07-28T11:09:06;2.67;;;2.37;;
36185;SDS011;22228;53.222;7.446;2023-07-28T11:11:28;3.00;;;1.97;;
36185;SDS011;22228;53.222;7.446;2023-07-28T11:13:49;2.13;;;2.03;;
36185;SDS011;22228;53.222;7.446;2023-07-28T11:16:09;2.40;;;2.30;;
36185;SDS011;22228;53.222;7.446;2023-07-28T11:18:31;2.37;;;1.83;;
36185;SDS011;22228;53.222;7.446;2023-07-28T11:20:54;2.03;;;1.73;;
36185;SDS011;22228;53.222;7.446;2023-07-28T11:23:15;1.90;;;1.80;;
36185;SDS011;22228;53.222;7.446;2023-07-28T11:25:36;1.70;;;1.53;;
36185;SDS011;22228;53.222;7.446;2023-07-28T11:27:55;2.13;;;1.10;;
36185;SDS011;22228;53.222;7.446;2023-07-28T11:30:16;1.40;;;1.30;;
36185;SDS011;22228;53.222;7.446;2023-07-28T11:32:37;2.80;;;1.00;;
36185;SDS011;22228;53.222;7.446;2023-07-28T11:35:02;1.07;;;1.00;;
36185;SDS011;22228;53.222;7.446;2023-07-28T11:37:25;1.00;;;1.00;;
36185;SDS011;22228;53.222;7.446;2023-07-28T11:39:45;1.30;;;1.20;;
36185;SDS011;22228;53.222;7.446;2023-07-28T11:42:06;1.10;;;1.10;;
36185;SDS011;22228;53.222;7.446;2023-07-28T11:44:28;1.00;;;1.00;;
36185;SDS011;22228;53.222;7.446;2023-07-28T11:46:50;1.30;;;1.30;;
36185;SDS011;22228;53.222;7.446;2023-07-28T11:49:13;2.40;;;1.57;;
36185;SDS011;22228;53.222;7.446;2023-07-28T11:51:38;1.73;;;1.63;;
36185;SDS011;22228;53.222;7.446;2023-07-28T11:54:03;2.10;;;2.00;;
36185;SDS011;22228;53.222;7.446;2023-07-28T11:56:24;2.07;;;1.70;;
36185;SDS011;22228;53.222;7.446;2023-07-28T11:58:50;1.60;;;1.60;;
36185;SDS011;22228;53.222;7.446;2023-07-28T12:01:11;2.47;;;2.37;;
36185;SDS011;22228;53.222;7.446;2023-07-28T12:03:32;2.40;;;2.20;;
36185;SDS011;22228;53.222;7.446;2023-07-28T12:06:03;3.00;;;2.80;;
36185;SDS011;22228;53.222;7.446;2023-07-28T12:08:33;1.97;;;1.87;;
36185;SDS011;22228;53.222;7.446;2023-07-28T12:10:55;4.97;;;4.53;;
36185;SDS011;22228;53.222;7.446;2023-07-28T12:13:15;2.07;;;1.87;;
36185;SDS011;22228;53.222;7.446;2023-07-28T12:15:41;2.10;;;2.00;;
36185;SDS011;22228;53.222;7.446;2023-07-28T12:18:03;2.73;;;1.67;;
36185;SDS011;22228;53.222;7.446;2023-07-28T12:20:25;2.63;;;1.93;;
36185;SDS011;22228;53.222;7.446;2023-07-28T12:22:45;2.20;;;2.10;;
36185;SDS011;22228;53.222;7.446;2023-07-28T12:25:07;4.80;;;1.90;;
36185;SDS011;22228;53.222;7.446;2023-07-28T12:27:30;2.17;;;1.80;;
36185;SDS011;22228;53.222;7.446;2023-07-28T12:29:50;2.03;;;1.73;;
36185;SDS011;22228;53.222;7.446;2023-07-28T12:32:11;2.13;;;1.90;;
36185;SDS011;22228;53.222;7.446;2023-07-28T12:34:32;2.17;;;2.00;;
36185;SDS011;22228;53.222;7.446;2023-07-28T12:36:52;1.80;;;1.70;;
36185;SDS011;22228;53.222;7.446;2023-07-28T12:39:13;1.67;;;1.57;;
36185;SDS011;22228;53.222;7.446;2023-07-28T12:41:33;1.77;;;1.33;;
36185;SDS011;22228;53.222;7.446;2023-07-28T12:43:55;2.93;;;1.53;;
36185;SDS011;22228;53.222;7.446;2023-07-28T12:46:16;1.60;;;1.50;;
36185;SDS011;22228;53.222;7.446;2023-07-28T12:48:37;1.83;;;1.73;;
36185;SDS011;22228;53.222;7.446;2023-07-28T12:50:58;3.70;;;1.80;;
36185;SDS011;22228;53.222;7.446;2023-07-28T12:53:18;1.67;;;1.57;;
36185;SDS011;22228;53.222;7.446;2023-07-28T12:55:39;1.77;;;1.40;;
36185;SDS011;22228;53.222;7.446;2023-07-28T12:58:00;3.13;;;1.57;;
36185;SDS011;22228;53.222;7.446;2023-07-28T13:00:22;1.23;;;1.13;;
36185;SDS011;22228;53.222;7.446;2023-07-28T13:02:43;1.60;;;1.23;;
36185;SDS011;22228;53.222;7.446;2023-07-28T13:05:04;1.53;;;1.40;;
36185;SDS011;22228;53.222;7.446;2023-07-28T13:07:25;1.87;;;1.77;;
36185;SDS011;22228;53.222;7.446;2023-07-28T13:09:46;1.60;;;1.50;;
36185;SDS011;22228;53.222;7.446;2023-07-28T13:12:07;1.97;;;1.50;;
36185;SDS011;22228;53.222;7.446;2023-07-28T13:14:28;1.60;;;1.50;;
36185;SDS011;22228;53.222;7.446;2023-07-28T13:16:49;1.50;;;1.40;;
36185;SDS011;22228;53.222;7.446;2023-07-28T13:19:10;1.53;;;1.43;;
36185;SDS011;22228;53.222;7.446;2023-07-28T13:21:30;1.90;;;1.80;;
36185;SDS011;22228;53.222;7.446;2023-07-28T13:23:51;2.03;;;1.20;;
36185;SDS011;22228;53.222;7.446;2023-07-28T13:26:12;1.57;;;1.40;;
36185;SDS011;22228;53.222;7.446;2023-07-28T13:28:32;1.80;;;1.70;;
36185;SDS011;22228;53.222;7.446;2023-07-28T13:30:53;1.77;;;1.40;;
36185;SDS011;22228;53.222;7.446;2023-07-28T13:33:15;1.60;;;1.50;;
36185;SDS011;22228;53.222;7.446;2023-07-28T13:35:36;2.40;;;1.27;;
36185;SDS011;22228;53.222;7.446;2023-07-28T13:37:56;2.23;;;1.70;;
36185;SDS011;22228;53.222;7.446;2023-07-28T13:40:17;2.67;;;1.27;;
36185;SDS011;22228;53.222;7.446;2023-07-28T13:42:37;1.97;;;1.63;;
36185;SDS011;22228;53.222;7.446;2023-07-28T13:44:58;1.97;;;1.30;;
36185;SDS011;22228;53.222;7.446;2023-07-28T13:47:18;2.37;;;1.50;;
36185;SDS011;22228;53.222;7.446;2023-07-28T13:49:40;1.43;;;1.40;;
36185;SDS011;22228;53.222;7.446;2023-07-28T13:52:00;2.13;;;1.93;;
36185;SDS011;22228;53.222;7.446;2023-07-28T13:54:21;3.50;;;3.20;;
36185;SDS011;22228;53.222;7.446;2023-07-28T13:56:41;2.17;;;1.70;;
36185;SDS011;22228;53.222;7.446;2023-07-28T13:59:02;1.90;;;1.53;;
36185;SDS011;22228;53.222;7.446;2023-07-28T14:01:23;2.10;;;2.00;;
36185;SDS011;22228;53.222;7.446;2023-07-28T14:03:44;1.70;;;1.60;;
36185;SDS011;22228;53.222;7.446;2023-07-28T14:06:06;2.07;;;1.47;;
36185;SDS011;22228;53.222;7.446;2023-07-28T14:08:26;1.30;;;1.30;;
36185;SDS011;22228;53.222;7.446;2023-07-28T14:10:47;1.17;;;1.17;;
36185;SDS011;22228;53.222;7.446;2023-07-28T14:13:07;1.33;;;1.23;;
36185;SDS011;22228;53.222;7.446;2023-07-28T14:15:28;1.30;;;1.20;;
36185;SDS011;22228;53.222;7.446;2023-07-28T14:17:48;2.73;;;1.70;;
36185;SDS011;22228;53.222;7.446;2023-07-28T14:20:09;1.30;;;1.20;;
36185;SDS011;22228;53.222;7.446;2023-07-28T14:22:31;1.27;;;0.93;;
36185;SDS011;22228;53.222;7.446;2023-07-28T14:24:52;1.43;;;0.90;;
36185;SDS011;22228;53.222;7.446;2023-07-28T14:27:12;1.50;;;1.30;;
36185;SDS011;22228;53.222;7.446;2023-07-28T14:29:33;1.20;;;1.10;;
36185;SDS011;22228;53.222;7.446;2023-07-28T14:31:54;1.30;;;1.30;;
36185;SDS011;22228;53.222;7.446;2023-07-28T14:34:14;1.37;;;1.27;;
36185;SDS011;22228;53.222;7.446;2023-07-28T14:36:35;1.97;;;1.77;;
36185;SDS011;22228;53.222;7.446;2023-07-28T14:38:57;2.10;;;1.43;;
36185;SDS011;22228;53.222;7.446;2023-07-28T14:41:17;1.50;;;1.23;;
36185;SDS011;22228;53.222;7.446;2023-07-28T14:43:38;2.20;;;1.17;;
36185;SDS011;22228;53.222;7.446;2023-07-28T14:45:58;1.70;;;1.60;;
36185;SDS011;22228;53.222;7.446;2023-07-28T14:48:19;1.53;;;1.40;;
36185;SDS011;22228;53.222;7.446;2023-07-28T14:50:40;1.17;;;1.17;;
36185;SDS011;22228;53.222;7.446;2023-07-28T14:53:01;1.50;;;1.40;;
36185;SDS011;22228;53.222;7.446;2023-07-28T14:55:23;1.67;;;1.57;;
36185;SDS011;22228;53.222;7.446;2023-07-28T14:57:43;2.20;;;1.77;;
36185;SDS011;22228;53.222;7.446;2023-07-28T15:05:01;1.20;;;1.20;;
36185;SDS011;22228;53.222;7.446;2023-07-28T15:07:21;2.47;;;1.20;;
36185;SDS011;22228;53.222;7.446;2023-07-28T15:09:42;1.37;;;1.30;;
36185;SDS011;22228;53.222;7.446;2023-07-28T15:12:03;2.10;;;1.90;;
36185;SDS011;22228;53.222;7.446;2023-07-28T15:14:23;1.43;;;1.33;;
36185;SDS011;22228;53.222;7.446;2023-07-28T15:16:44;1.73;;;1.53;;
36185;SDS011;22228;53.222;7.446;2023-07-28T15:19:04;1.47;;;1.20;;
36185;SDS011;22228;53.222;7.446;2023-07-28T15:21:26;1.30;;;1.20;;
36185;SDS011;22228;53.222;7.446;2023-07-28T15:23:52;1.70;;;1.60;;
36185;SDS011;22228;53.222;7.446;2023-07-28T15:26:13;1.40;;;1.30;;
36185;SDS011;22228;53.222;7.446;2023-07-28T15:28:33;2.43;;;1.20;;
36185;SDS011;22228;53.222;7.446;2023-07-28T15:30:54;1.20;;;1.20;;
36185;SDS011;22228;53.222;7.446;2023-07-28T15:33:16;1.17;;;1.10;;
36185;SDS011;22228;53.222;7.446;2023-07-28T15:35:37;2.07;;;1.30;;
36185;SDS011;22228;53.222;7.446;2023-07-28T15:37:59;1.20;;;1.20;;
36185;SDS011;22228;53.222;7.446;2023-07-28T15:40:20;9.93;;;1.97;;
36185;SDS011;22228;53.222;7.446;2023-07-28T15:42:40;1.63;;;1.53;;
36185;SDS011;22228;53.222;7.446;2023-07-28T15:45:01;1.90;;;1.50;;
36185;SDS011;22228;53.222;7.446;2023-07-28T15:47:21;2.00;;;1.23;;
36185;SDS011;22228;53.222;7.446;2023-07-28T15:49:42;2.00;;;1.20;;
36185;SDS011;22228;53.222;7.446;2023-07-28T15:52:03;2.00;;;1.90;;
36185;SDS011;22228;53.222;7.446;2023-07-28T15:54:25;1.50;;;1.33;;
36185;SDS011;22228;53.222;7.446;2023-07-28T15:56:46;2.20;;;2.00;;
36185;SDS011;22228;53.222;7.446;2023-07-28T15:59:07;1.83;;;1.73;;
36185;SDS011;22228;53.222;7.446;2023-07-28T16:01:27;1.93;;;1.83;;
36185;SDS011;22228;53.222;7.446;2023-07-28T16:03:48;2.30;;;2.10;;
36185;SDS011;22228;53.222;7.446;2023-07-28T16:06:08;1.90;;;1.80;;
36185;SDS011;22228;53.222;7.446;2023-07-28T16:08:29;2.30;;;2.20;;
36185;SDS011;22228;53.222;7.446;2023-07-28T16:10:51;2.00;;;1.90;;
36185;SDS011;22228;53.222;7.446;2023-07-28T16:13:11;2.43;;;2.33;;
36185;SDS011;22228;53.222;7.446;2023-07-28T16:15:32;1.97;;;1.87;;
36185;SDS011;22228;53.222;7.446;2023-07-28T16:17:52;2.37;;;2.07;;
36185;SDS011;22228;53.222;7.446;2023-07-28T16:20:13;2.67;;;2.27;;
36185;SDS011;22228;53.222;7.446;2023-07-28T16:22:33;2.27;;;2.17;;
36185;SDS011;22228;53.222;7.446;2023-07-28T16:24:54;2.17;;;2.07;;
36185;SDS011;22228;53.222;7.446;2023-07-28T16:27:15;2.30;;;2.20;;
36185;SDS011;22228;53.222;7.446;2023-07-28T16:29:36;3.10;;;1.90;;
36185;SDS011;22228;53.222;7.446;2023-07-28T16:31:56;1.93;;;1.83;;
36185;SDS011;22228;53.222;7.446;2023-07-28T16:34:17;2.43;;;2.27;;
36185;SDS011;22228;53.222;7.446;2023-07-28T16:36:37;2.30;;;1.70;;
36185;SDS011;22228;53.222;7.446;2023-07-28T16:38:58;2.20;;;2.00;;
36185;SDS011;22228;53.222;7.446;2023-07-28T16:41:18;2.67;;;2.43;;
36185;SDS011;22228;53.222;7.446;2023-07-28T16:43:40;2.17;;;1.93;;
36185;SDS011;22228;53.222;7.446;2023-07-28T16:46:00;1.90;;;1.80;;
36185;SDS011;22228;53.222;7.446;2023-07-28T16:48:21;1.73;;;1.63;;
36185;SDS011;22228;53.222;7.446;2023-07-28T16:50:41;1.50;;;1.40;;
36185;SDS011;22228;53.222;7.446;2023-07-28T16:53:02;2.13;;;2.03;;
36185;SDS011;22228;53.222;7.446;2023-07-28T16:55:22;1.77;;;1.67;;
36185;SDS011;22228;53.222;7.446;2023-07-28T16:57:43;2.37;;;2.10;;
36185;SDS011;22228;53.222;7.446;2023-07-28T17:00:05;2.20;;;2.10;;
36185;SDS011;22228;53.222;7.446;2023-07-28T17:02:26;2.30;;;2.20;;